Wetterdaten: Woche 06.08.18 - 12.08.18 (KW32)
Datum Zeit Temp. A. Feuchte A. Luftdruck Regen Wind Richtung Taupunkt Windchill Windben
06.08.2018 00:00 22,2 C 77 % 1015,6 hPa 0,0 l/m 0,2 km/h N 18,0 C 22,2 C 1,6 km/h
06.08.2018 01:00 21,4 C 79 % 1015,8 hPa 0,0 l/m 0,0 km/h N 17,5 C 21,4 C 1,6 km/h
06.08.2018 02:00 21,9 C 78 % 1016,0 hPa 0,0 l/m 1,5 km/h N 17,8 C 21,9 C 7,2 km/h
06.08.2018 03:00 22,3 C 74 % 1016,1 hPa 0,0 l/m 0,8 km/h N 17,5 C 22,3 C 4,4 km/h
06.08.2018 04:00 21,4 C 75 % 1016,1 hPa 0,0 l/m 0,7 km/h N 16,8 C 21,4 C 6,4 km/h
06.08.2018 05:00 21,2 C 75 % 1016,5 hPa 0,0 l/m 0,8 km/h N 16,5 C 21,2 C 4,8 km/h
06.08.2018 06:00 21,0 C 76 % 1016,8 hPa 0,0 l/m 0,7 km/h N 16,4 C 21,0 C 3,6 km/h
06.08.2018 07:00 21,6 C 74 % 1017,2 hPa 0,0 l/m 3,3 km/h N 16,7 C 21,6 C 11,6 km/h
06.08.2018 08:00 22,5 C 71 % 1017,5 hPa 0,0 l/m 4,9 km/h N 17,0 C 22,5 C 13,7 km/h
06.08.2018 09:00 23,9 C 66 % 1017,6 hPa 0,0 l/m 5,7 km/h N 17,0 C 23,8 C 15,3 km/h
06.08.2018 10:00 25,6 C 62 % 1017,5 hPa 0,0 l/m 2,5 km/h N 17,8 C 25,6 C 10,9 km/h
06.08.2018 11:00 27,2 C 59 % 1017,1 hPa 0,0 l/m 1,3 km/h N 18,4 C 27,2 C 8,8 km/h
06.08.2018 12:00 28,0 C 57 % 1016,8 hPa 0,0 l/m 2,4 km/h N 18,6 C 28,0 C 10,1 km/h
06.08.2018 13:00 29,3 C 53 % 1016,4 hPa 0,0 l/m 1,5 km/h N 18,8 C 29,3 C 7,2 km/h
06.08.2018 14:00 29,7 C 51 % 1015,7 hPa 0,0 l/m 1,5 km/h N 18,4 C 29,7 C 6,4 km/h
06.08.2018 15:00 29,7 C 50 % 1015,0 hPa 0,0 l/m 2,5 km/h N 18,3 C 29,7 C 10,5 km/h
06.08.2018 16:00 29,8 C 50 % 1014,6 hPa 0,0 l/m 1,5 km/h N 18,1 C 29,8 C 9,2 km/h
06.08.2018 17:00 29,6 C 49 % 1014,2 hPa 0,0 l/m 2,8 km/h N 17,8 C 29,6 C 10,1 km/h
06.08.2018 18:00 29,7 C 49 % 1013,7 hPa 0,0 l/m 0,2 km/h N 17,9 C 29,7 C 3,6 km/h
06.08.2018 19:00 29,6 C 48 % 1013,5 hPa 0,0 l/m 0,0 km/h N 17,5 C 29,6 C 1,2 km/h
06.08.2018 20:00 28,1 C 52 % 1013,8 hPa 0,0 l/m 0,0 km/h N 17,4 C 28,1 C 0,0 km/h
06.08.2018 21:00 25,0 C 63 % 1014,4 hPa 0,0 l/m 0,0 km/h N 17,3 C 25,0 C 0,0 km/h
06.08.2018 22:00 22,9 C 71 % 1014,6 hPa 0,0 l/m 0,0 km/h N 17,2 C 22,9 C 0,0 km/h
06.08.2018 23:00 21,7 C 74 % 1014,8 hPa 0,0 l/m 0,0 km/h N 16,9 C 21,7 C 0,4 km/h
07.08.2018 00:00 20,9 C 76 % 1014,9 hPa 0,0 l/m 0,0 km/h N 16,6 C 20,9 C 0,0 km/h
07.08.2018 01:00 20,2 C 78 % 1014,7 hPa 0,0 l/m 0,0 km/h N 16,2 C 20,2 C 0,8 km/h
07.08.2018 02:00 19,9 C 79 % 1014,3 hPa 0,0 l/m 0,0 km/h N 16,0 C 19,9 C 0,4 km/h
07.08.2018 03:00 19,1 C 80 % 1014,2 hPa 0,0 l/m 0,0 km/h N 15,5 C 19,1 C 0,0 km/h
07.08.2018 04:00 18,6 C 81 % 1014,1 hPa 0,0 l/m 0,0 km/h N 15,3 C 18,6 C 0,8 km/h
07.08.2018 05:00 18,3 C 81 % 1014,4 hPa 0,0 l/m 0,0 km/h N 15,0 C 18,3 C 0,4 km/h
07.08.2018 06:00 18,2 C 81 % 1014,7 hPa 0,0 l/m 0,0 km/h N 14,9 C 18,2 C 0,0 km/h
07.08.2018 07:00 18,5 C 81 % 1015,1 hPa 0,0 l/m 0,0 km/h N 15,1 C 18,5 C 0,4 km/h
07.08.2018 08:00 20,6 C 77 % 1015,4 hPa 0,0 l/m 0,1 km/h N 16,5 C 20,6 C 2,0 km/h
07.08.2018 09:00 24,1 C 67 % 1015,1 hPa 0,0 l/m 0,2 km/h N 17,7 C 24,1 C 4,8 km/h
07.08.2018 10:00 27,6 C 60 % 1014,8 hPa 0,0 l/m 0,2 km/h N 19,2 C 27,6 C 5,2 km/h
07.08.2018 11:00 30,0 C 57 % 1014,3 hPa 0,0 l/m 0,7 km/h N 20,4 C 30,0 C 7,3 km/h
07.08.2018 12:00 31,8 C 54 % 1013,7 hPa 0,0 l/m 1,4 km/h N 21,2 C 31,8 C 10,1 km/h
07.08.2018 13:00 32,1 C 54 % 1012,9 hPa 0,0 l/m 2,3 km/h N 21,5 C 32,1 C 11,6 km/h
07.08.2018 14:00 32,3 C 53 % 1012,5 hPa 0,0 l/m 1,4 km/h N 21,4 C 32,3 C 8,0 km/h
07.08.2018 15:00 31,2 C 52 % 1012,2 hPa 0,0 l/m 1,7 km/h N 20,2 C 31,2 C 6,4 km/h
07.08.2018 16:00 30,1 C 55 % 1012,3 hPa 0,0 l/m 0,6 km/h N 20,0 C 30,1 C 4,0 km/h
07.08.2018 17:00 29,0 C 58 % 1012,1 hPa 0,5 l/m 0,1 km/h N 19,9 C 29,0 C 3,2 km/h
07.08.2018 18:00 25,4 C 74 % 1012,1 hPa 0,3 l/m 0,1 km/h N 20,4 C 25,4 C 2,8 km/h
07.08.2018 19:00 24,6 C 78 % 1012,8 hPa 0,0 l/m 0,2 km/h N 20,5 C 24,6 C 4,0 km/h
07.08.2018 20:00 24,1 C 76 % 1012,9 hPa 0,0 l/m 0,0 km/h N 19,6 C 24,1 C 2,0 km/h
07.08.2018 21:00 22,7 C 77 % 1012,5 hPa 0,0 l/m 0,6 km/h N 18,4 C 22,7 C 4,8 km/h
07.08.2018 22:00 21,6 C 79 % 1012,6 hPa 0,0 l/m 0,2 km/h N 17,7 C 21,6 C 3,2 km/h
07.08.2018 23:00 20,7 C 80 % 1012,5 hPa 0,0 l/m 0,0 km/h N 17,1 C 20,7 C 0,4 km/h
08.08.2018 00:00 19,8 C 81 % 1012,4 hPa 0,0 l/m 0,1 km/h N 16,4 C 19,8 C 1,2 km/h
08.08.2018 01:00 19,0 C 81 % 1012,4 hPa 0,0 l/m 0,0 km/h N 15,6 C 19,0 C 0,0 km/h
08.08.2018 02:00 18,5 C 81 % 1012,1 hPa 0,0 l/m 0,0 km/h N 15,1 C 18,5 C 1,6 km/h
08.08.2018 03:00 18,2 C 81 % 1012,0 hPa 0,0 l/m 0,0 km/h N 14,8 C 18,2 C 0,0 km/h
08.08.2018 04:00 17,6 C 81 % 1011,7 hPa 0,0 l/m 0,0 km/h N 14,3 C 17,6 C 0,0 km/h
08.08.2018 05:00 17,4 C 81 % 1011,8 hPa 0,3 l/m 0,0 km/h N 14,2 C 17,4 C 0,4 km/h
08.08.2018 06:00 17,5 C 81 % 1011,8 hPa 0,0 l/m 0,0 km/h N 14,2 C 17,5 C 0,0 km/h
08.08.2018 07:00 18,4 C 81 % 1012,0 hPa 0,0 l/m 0,0 km/h N 15,0 C 18,4 C 0,8 km/h
08.08.2018 08:00 20,1 C 81 % 1012,3 hPa 0,0 l/m 0,5 km/h N 16,7 C 20,1 C 5,2 km/h
08.08.2018 09:00 24,5 C 71 % 1012,3 hPa 0,0 l/m 0,4 km/h N 18,8 C 24,5 C 4,0 km/h
08.08.2018 10:00 28,8 C 62 % 1012,3 hPa 0,0 l/m 0,1 km/h N 20,7 C 28,8 C 3,2 km/h
08.08.2018 11:00 31,4 C 55 % 1012,2 hPa 0,0 l/m 0,3 km/h N 21,2 C 31,4 C 4,4 km/h
08.08.2018 12:00 32,3 C 51 % 1011,8 hPa 0,0 l/m 1,1 km/h N 20,8 C 32,3 C 7,2 km/h
08.08.2018 13:00 34,0 C 45 % 1011,6 hPa 0,0 l/m 0,5 km/h N 20,3 C 34,0 C 6,8 km/h
08.08.2018 14:00 34,1 C 43 % 1011,3 hPa 0,0 l/m 1,1 km/h N 19,8 C 34,1 C 7,6 km/h
08.08.2018 15:00 33,8 C 43 % 1011,1 hPa 0,0 l/m 0,1 km/h N 19,5 C 33,8 C 4,4 km/h
08.08.2018 16:00 33,8 C 44 % 1010,9 hPa 0,0 l/m 1,7 km/h N 19,7 C 33,8 C 9,3 km/h
08.08.2018 17:00 33,6 C 44 % 1011,0 hPa 0,0 l/m 3,2 km/h N 19,7 C 33,6 C 15,3 km/h
08.08.2018 18:00 32,7 C 47 % 1011,1 hPa 0,0 l/m 2,1 km/h N 19,9 C 32,7 C 12,9 km/h
08.08.2018 19:00 31,5 C 49 % 1011,3 hPa 0,0 l/m 1,6 km/h N 19,4 C 31,5 C 8,8 km/h
08.08.2018 20:00 29,6 C 56 % 1011,7 hPa 0,0 l/m 0,0 km/h N 19,7 C 29,6 C 2,0 km/h
08.08.2018 21:00 26,9 C 65 % 1012,3 hPa 0,0 l/m 0,0 km/h N 19,7 C 26,9 C 1,6 km/h
08.08.2018 22:00 24,9 C 71 % 1012,9 hPa 0,0 l/m 0,0 km/h N 19,3 C 24,9 C 0,0 km/h
08.08.2018 23:00 23,1 C 76 % 1013,2 hPa 0,0 l/m 0,1 km/h N 18,6 C 23,1 C 0,8 km/h
09.08.2018 00:00 22,3 C 77 % 1012,8 hPa 0,0 l/m 0,0 km/h N 18,0 C 22,3 C 0,4 km/h
09.08.2018 01:00 22,2 C 77 % 1013,3 hPa 0,0 l/m 0,0 km/h N 17,9 C 22,2 C 0,4 km/h
09.08.2018 02:00 21,9 C 77 % 1013,8 hPa 0,0 l/m 0,0 km/h N 17,7 C 21,9 C 0,0 km/h
09.08.2018 03:00 21,0 C 77 % 1013,6 hPa 0,0 l/m 0,0 km/h N 16,8 C 21,0 C 0,8 km/h
09.08.2018 04:00 20,6 C 78 % 1013,6 hPa 0,0 l/m 0,2 km/h N 16,6 C 20,6 C 2,8 km/h
09.08.2018 05:00 20,4 C 78 % 1013,8 hPa 0,0 l/m 0,0 km/h N 16,4 C 20,4 C 0,0 km/h
09.08.2018 06:00 19,7 C 79 % 1014,2 hPa 0,0 l/m 0,0 km/h N 15,9 C 19,7 C 0,0 km/h
09.08.2018 07:00 20,1 C 80 % 1014,5 hPa 0,0 l/m 0,0 km/h N 16,4 C 20,1 C 0,0 km/h
09.08.2018 08:00 22,1 C 76 % 1014,7 hPa 0,0 l/m 0,0 km/h N 17,7 C 22,1 C 0,4 km/h
09.08.2018 09:00 26,3 C 65 % 1014,6 hPa 0,0 l/m 0,1 km/h N 19,0 C 26,3 C 3,2 km/h
09.08.2018 10:00 30,1 C 55 % 1014,6 hPa 0,0 l/m 0,3 km/h N 19,8 C 30,1 C 4,8 km/h
09.08.2018 11:00 32,1 C 54 % 1014,3 hPa 0,0 l/m 0,6 km/h N 21,5 C 32,1 C 6,0 km/h
09.08.2018 12:00 33,9 C 51 % 1013,7 hPa 0,0 l/m 0,8 km/h N 22,3 C 33,9 C 8,0 km/h
09.08.2018 13:00 35,3 C 46 % 1012,8 hPa 0,0 l/m 1,8 km/h N 21,8 C 35,3 C 7,6 km/h
09.08.2018 14:00 35,5 C 40 % 1012,4 hPa 0,0 l/m 3,3 km/h N 19,9 C 35,5 C 12,5 km/h
09.08.2018 15:00 36,1 C 37 % 1012,0 hPa 0,0 l/m 3,7 km/h N 19,0 C 36,1 C 13,7 km/h
09.08.2018 16:00 35,0 C 38 % 1011,5 hPa 0,0 l/m 4,9 km/h N 18,5 C 35,0 C 18,9 km/h
09.08.2018 17:00 34,4 C 39 % 1011,4 hPa 0,0 l/m 4,7 km/h N 18,5 C 34,4 C 15,3 km/h
09.08.2018 18:00 33,8 C 42 % 1011,5 hPa 0,0 l/m 4,4 km/h N 18,9 C 33,8 C 16,1 km/h
09.08.2018 19:00 32,9 C 45 % 1011,7 hPa 0,0 l/m 3,8 km/h N 19,2 C 32,9 C 9,3 km/h
09.08.2018 20:00 31,6 C 47 % 1011,9 hPa 0,0 l/m 2,3 km/h N 18,9 C 31,6 C 6,8 km/h
09.08.2018 21:00 30,0 C 52 % 1012,2 hPa 0,0 l/m 2,6 km/h N 19,1 C 30,0 C 8,4 km/h
09.08.2018 22:00 28,7 C 56 % 1012,3 hPa 0,0 l/m 1,5 km/h N 19,1 C 28,7 C 6,4 km/h
09.08.2018 23:00 27,7 C 57 % 1012,6 hPa 0,0 l/m 1,9 km/h N 18,5 C 27,7 C 8,4 km/h
10.08.2018 00:00 26,9 C 59 % 1012,8 hPa 0,0 l/m 0,2 km/h N 18,2 C 26,9 C 3,2 km/h
10.08.2018 01:00 26,5 C 62 % 1013,2 hPa 0,0 l/m 0,3 km/h N 18,4 C 26,5 C 5,2 km/h
10.08.2018 02:00 26,0 C 60 % 1014,2 hPa 0,0 l/m 1,9 km/h N 17,7 C 26,0 C 8,9 km/h
10.08.2018 03:00 25,7 C 57 % 1014,6 hPa 0,0 l/m 2,9 km/h N 16,6 C 25,7 C 14,1 km/h
10.08.2018 04:00 24,4 C 59 % 1015,2 hPa 0,0 l/m 1,5 km/h N 15,8 C 24,4 C 11,3 km/h
10.08.2018 05:00 23,8 C 60 % 1016,1 hPa 0,0 l/m 3,3 km/h N 15,5 C 23,8 C 14,5 km/h
10.08.2018 06:00 23,8 C 62 % 1017,0 hPa 0,0 l/m 5,3 km/h N 16,0 C 23,8 C 20,1 km/h
10.08.2018 07:00 24,0 C 63 % 1017,8 hPa 0,0 l/m 6,4 km/h N 16,5 C 23,8 C 25,8 km/h
10.08.2018 08:00 24,4 C 63 % 1018,7 hPa 0,0 l/m 8,2 km/h N 16,9 C 23,9 C 24,1 km/h
10.08.2018 09:00 25,4 C 61 % 1019,0 hPa 0,0 l/m 7,6 km/h N 17,2 C 25,1 C 20,5 km/h
10.08.2018 10:00 26,6 C 57 % 1019,2 hPa 0,0 l/m 8,4 km/h N 17,4 C 26,2 C 23,6 km/h
10.08.2018 11:00 27,2 C 57 % 1019,1 hPa 0,0 l/m 6,3 km/h N 17,9 C 27,1 C 16,9 km/h
10.08.2018 12:00 27,8 C 55 % 1019,1 hPa 0,0 l/m 4,6 km/h N 18,0 C 27,8 C 18,1 km/h
10.08.2018 13:00 27,7 C 55 % 1018,9 hPa 0,0 l/m 4,8 km/h N 17,7 C 27,7 C 17,3 km/h
10.08.2018 14:00 29,2 C 49 % 1018,5 hPa 0,0 l/m 3,2 km/h N 17,2 C 29,2 C 12,1 km/h
10.08.2018 15:00 28,4 C 49 % 1018,3 hPa 0,0 l/m 3,4 km/h N 16,6 C 28,4 C 12,9 km/h
10.08.2018 16:00 28,3 C 49 % 1018,3 hPa 0,0 l/m 5,6 km/h N 16,4 C 28,3 C 17,3 km/h
10.08.2018 17:00 25,9 C 61 % 1019,0 hPa 0,0 l/m 6,9 km/h N 17,6 C 25,6 C 20,9 km/h
10.08.2018 18:00 22,0 C 74 % 1019,6 hPa 0,0 l/m 4,7 km/h N 17,1 C 21,8 C 17,7 km/h
10.08.2018 19:00 19,3 C 78 % 1020,2 hPa 0,3 l/m 9,5 km/h N 15,4 C 18,1 C 28,2 km/h
10.08.2018 20:00 18,4 C 79 % 1021,1 hPa 0,0 l/m 6,3 km/h N 14,6 C 17,4 C 21,3 km/h
10.08.2018 21:00 17,8 C 80 % 1022,0 hPa 2,1 l/m 1,9 km/h N 14,2 C 17,8 C 12,9 km/h
10.08.2018 22:00 17,3 C 80 % 1022,3 hPa 0,8 l/m 1,4 km/h N 13,7 C 17,3 C 8,9 km/h
10.08.2018 23:00 17,0 C 80 % 1022,0 hPa 0,0 l/m 1,4 km/h N 13,6 C 17,0 C 11,3 km/h
11.08.2018 00:00 17,2 C 80 % 1021,9 hPa 0,0 l/m 2,4 km/h N 13,7 C 17,2 C 11,3 km/h
11.08.2018 01:00 17,1 C 80 % 1021,4 hPa 0,3 l/m 1,5 km/h N 13,6 C 17,1 C 9,3 km/h
11.08.2018 02:00 16,9 C 80 % 1021,1 hPa 0,0 l/m 2,0 km/h N 13,4 C 16,9 C 9,7 km/h
11.08.2018 03:00 16,7 C 80 % 1020,9 hPa 0,0 l/m 2,7 km/h N 13,2 C 16,7 C 9,6 km/h
11.08.2018 04:00 17,3 C 80 % 1020,7 hPa 0,0 l/m 3,4 km/h N 13,8 C 17,3 C 14,9 km/h
11.08.2018 05:00 17,5 C 79 % 1020,7 hPa 0,3 l/m 2,7 km/h N 13,8 C 17,5 C 10,9 km/h
11.08.2018 06:00 17,0 C 80 % 1021,2 hPa 1,0 l/m 4,4 km/h N 13,4 C 17,0 C 12,9 km/h
11.08.2018 07:00 16,4 C 80 % 1021,6 hPa 0,0 l/m 2,2 km/h N 12,9 C 16,4 C 8,4 km/h
11.08.2018 08:00 17,1 C 80 % 1021,9 hPa 0,0 l/m 1,7 km/h N 13,6 C 17,1 C 6,0 km/h
11.08.2018 09:00 18,4 C 79 % 1021,8 hPa 0,0 l/m 5,1 km/h N 14,7 C 18,3 C 14,9 km/h
11.08.2018 10:00 19,0 C 74 % 1021,8 hPa 0,0 l/m 7,1 km/h N 14,3 C 18,6 C 18,5 km/h
11.08.2018 11:00 20,1 C 74 % 1021,4 hPa 0,0 l/m 6,3 km/h N 15,3 C 20,0 C 20,5 km/h
11.08.2018 12:00 21,3 C 69 % 1021,1 hPa 0,0 l/m 5,0 km/h N 15,4 C 21,3 C 15,3 km/h
11.08.2018 13:00 23,3 C 56 % 1020,6 hPa 0,0 l/m 4,9 km/h N 13,9 C 23,3 C 15,7 km/h
11.08.2018 14:00 25,1 C 52 % 1020,0 hPa 0,0 l/m 6,4 km/h N 14,4 C 25,0 C 15,7 km/h
11.08.2018 15:00 25,2 C 50 % 1019,5 hPa 0,0 l/m 5,6 km/h N 14,1 C 25,2 C 17,3 km/h
11.08.2018 16:00 25,6 C 47 % 1019,0 hPa 0,0 l/m 6,3 km/h N 13,5 C 25,6 C 18,9 km/h
11.08.2018 17:00 25,5 C 45 % 1018,6 hPa 0,0 l/m 4,4 km/h N 12,8 C 25,5 C 16,1 km/h
11.08.2018 18:00 25,2 C 46 % 1018,5 hPa 0,0 l/m 1,2 km/h N 12,8 C 25,2 C 9,6 km/h
11.08.2018 19:00 24,9 C 48 % 1018,7 hPa 0,0 l/m 0,3 km/h N 13,0 C 24,9 C 5,2 km/h
11.08.2018 20:00 23,8 C 49 % 1018,8 hPa 0,0 l/m 1,9 km/h N 12,3 C 23,8 C 10,9 km/h
11.08.2018 21:00 23,0 C 50 % 1019,4 hPa 0,0 l/m 1,9 km/h N 11,9 C 23,0 C 11,3 km/h
11.08.2018 22:00 21,6 C 54 % 1019,9 hPa 0,0 l/m 0,0 km/h N 11,9 C 21,6 C 0,0 km/h
11.08.2018 23:00 19,3 C 63 % 1020,2 hPa 0,0 l/m 0,0 km/h N 12,0 C 19,3 C 0,0 km/h
12.08.2018 00:00 18,3 C 68 % 1020,3 hPa 0,0 l/m 0,0 km/h N 12,1 C 18,3 C 0,0 km/h
12.08.2018 01:00 17,7 C 71 % 1020,3 hPa 0,0 l/m 0,0 km/h N 12,4 C 17,7 C 0,8 km/h
12.08.2018 02:00 16,8 C 72 % 1020,1 hPa 0,0 l/m 0,0 km/h N 11,6 C 16,8 C 0,0 km/h
12.08.2018 03:00 15,7 C 75 % 1020,1 hPa 0,0 l/m 0,0 km/h N 11,3 C 15,7 C 0,0 km/h
12.08.2018 04:00 14,9 C 76 % 1020,0 hPa 0,0 l/m 0,0 km/h N 10,8 C 14,9 C 0,0 km/h
12.08.2018 05:00 14,3 C 78 % 1019,8 hPa 0,0 l/m 0,1 km/h N 10,4 C 14,3 C 1,2 km/h
12.08.2018 06:00 13,9 C 79 % 1019,8 hPa 0,0 l/m 0,0 km/h N 10,3 C 13,9 C 1,6 km/h
12.08.2018 07:00 15,0 C 78 % 1020,0 hPa 0,0 l/m 0,0 km/h N 11,2 C 15,0 C 0,8 km/h
12.08.2018 08:00 18,6 C 68 % 1019,7 hPa 0,0 l/m 0,2 km/h N 12,5 C 18,6 C 2,8 km/h
12.08.2018 09:00 23,0 C 53 % 1019,3 hPa 0,0 l/m 0,1 km/h N 12,9 C 23,0 C 2,4 km/h
12.08.2018 10:00 26,1 C 45 % 1019,0 hPa 0,0 l/m 0,4 km/h N 13,2 C 26,1 C 6,4 km/h
12.08.2018 11:00 27,7 C 39 % 1018,6 hPa 0,0 l/m 1,0 km/h N 12,3 C 27,7 C 7,6 km/h
12.08.2018 12:00 29,1 C 36 % 1017,8 hPa 0,0 l/m 1,5 km/h N 12,4 C 29,1 C 7,2 km/h
12.08.2018 13:00 29,9 C 37 % 1017,1 hPa 0,0 l/m 2,4 km/h N 13,4 C 29,9 C 12,1 km/h
12.08.2018 14:00 29,7 C 38 % 1016,3 hPa 0,0 l/m 2,5 km/h N 13,8 C 29,7 C 8,9 km/h
12.08.2018 15:00 30,0 C 40 % 1015,1 hPa 0,0 l/m 2,8 km/h N 14,7 C 30,0 C 10,9 km/h
12.08.2018 16:00 29,6 C 40 % 1014,3 hPa 0,0 l/m 3,3 km/h N 14,4 C 29,6 C 10,5 km/h
12.08.2018 17:00 29,2 C 41 % 1013,6 hPa 0,0 l/m 2,7 km/h N 14,7 C 29,2 C 10,9 km/h
12.08.2018 18:00 28,9 C 44 % 1013,0 hPa 0,0 l/m 2,4 km/h N 15,4 C 28,9 C 9,7 km/h
12.08.2018 19:00 28,1 C 46 % 1012,5 hPa 0,0 l/m 2,5 km/h N 15,4 C 28,1 C 8,1 km/h
12.08.2018 20:00 26,8 C 49 % 1012,3 hPa 0,0 l/m 1,0 km/h N 15,0 C 26,8 C 5,6 km/h
12.08.2018 21:00 24,5 C 55 % 1012,4 hPa 0,0 l/m 0,1 km/h N 14,9 C 24,5 C 2,4 km/h
12.08.2018 22:00 23,0 C 60 % 1012,2 hPa 0,0 l/m 0,0 km/h N 14,8 C 23,0 C 2,0 km/h
12.08.2018 23:00 22,5 C 63 % 1011,8 hPa 0,0 l/m 0,1 km/h N 15,0 C 22,5 C 3,2 km/h
Min-Datum _ 12.08.18 12.08.18 08.08.18 - 06.08.18 - 12.08.18 12.08.18 06.08.18
_ Min-Zeit 06:30 12:15 16:15 - 00:30 - 06:00 06:00 00:30
Minimum _ 13,8 C 34 % 1010,8 hPa - 0,0 km/h - 10,1 C 13,9 C 0,0 km/h
Max-Datum _ 09.08.18 07.08.18 10.08.18 10.08.18 10.08.18 - 09.08.18 09.08.18 10.08.18
_ Max-Zeit 15:00 04:00 22:00 21:15 19:30 - 13:00 15:00 07:45
Maximum _ 36,4 C 81 % 1022,5 hPa 2,1 l/m 13,4 km/h
N
- 23,0 C 36,4 C 30,6 km/h
N
Durchschnitt _ 24,5 C 63 % 1015,7 hPa #5,7 l/m 1,8 km/h N 16,5 C 24,5 C 7,5 km/h